sensor_id;sensor_type;location;lat;lon;timestamp;P1;durP1;ratioP1;P2;durP2;ratioP2
57249;SDS011;43102;52.014;-0.680;2023-05-07T00:00:01;7.90;;;5.60;;
57249;SDS011;43102;52.014;-0.680;2023-05-07T00:01:01;7.90;;;5.60;;
57249;SDS011;43102;52.014;-0.680;2023-05-07T00:02:01;7.90;;;5.60;;
57249;SDS011;43102;52.014;-0.680;2023-05-07T00:03:01;7.90;;;5.60;;
57249;SDS011;43102;52.014;-0.680;2023-05-07T00:04:01;7.90;;;5.60;;
57249;SDS011;43102;52.014;-0.680;2023-05-07T00:05:02;7.90;;;5.60;;
57249;SDS011;43102;52.014;-0.680;2023-05-07T00:06:00;7.90;;;5.60;;
57249;SDS011;43102;52.014;-0.680;2023-05-07T00:07:00;7.90;;;5.60;;
57249;SDS011;43102;52.014;-0.680;2023-05-07T00:08:00;7.90;;;5.60;;
57249;SDS011;43102;52.014;-0.680;2023-05-07T00:09:00;7.90;;;5.60;;
57249;SDS011;43102;52.014;-0.680;2023-05-07T00:10:00;7.90;;;5.60;;
57249;SDS011;43102;52.014;-0.680;2023-05-07T00:11:00;7.90;;;5.60;;
57249;SDS011;43102;52.014;-0.680;2023-05-07T00:12:00;7.90;;;5.60;;
57249;SDS011;43102;52.014;-0.680;2023-05-07T00:13:00;7.90;;;5.60;;
57249;SDS011;43102;52.014;-0.680;2023-05-07T00:14:00;7.90;;;5.60;;
57249;SDS011;43102;52.014;-0.680;2023-05-07T00:15:03;7.90;;;5.60;;
57249;SDS011;43102;52.014;-0.680;2023-05-07T00:16:01;7.90;;;5.60;;
57249;SDS011;43102;52.014;-0.680;2023-05-07T00:17:00;7.90;;;5.60;;
57249;SDS011;43102;52.014;-0.680;2023-05-07T00:18:00;7.90;;;5.60;;
57249;SDS011;43102;52.014;-0.680;2023-05-07T00:19:00;7.90;;;5.60;;
57249;SDS011;43102;52.014;-0.680;2023-05-07T00:20:00;7.90;;;5.60;;
57249;SDS011;43102;52.014;-0.680;2023-05-07T00:21:00;7.90;;;5.60;;
57249;SDS011;43102;52.014;-0.680;2023-05-07T00:22:00;7.90;;;5.60;;
57249;SDS011;43102;52.014;-0.680;2023-05-07T00:23:00;7.90;;;5.60;;
57249;SDS011;43102;52.014;-0.680;2023-05-07T00:24:00;7.90;;;5.60;;
57249;SDS011;43102;52.014;-0.680;2023-05-07T00:25:00;7.90;;;5.60;;
57249;SDS011;43102;52.014;-0.680;2023-05-07T00:26:00;7.90;;;5.60;;
57249;SDS011;43102;52.014;-0.680;2023-05-07T00:27:00;7.90;;;5.60;;
57249;SDS011;43102;52.014;-0.680;2023-05-07T00:28:03;10.40;;;7.30;;
57249;SDS011;43102;52.014;-0.680;2023-05-07T00:29:00;10.40;;;7.30;;
57249;SDS011;43102;52.014;-0.680;2023-05-07T00:30:00;10.40;;;7.30;;
57249;SDS011;43102;52.014;-0.680;2023-05-07T00:31:00;10.40;;;7.30;;
57249;SDS011;43102;52.014;-0.680;2023-05-07T00:32:00;10.40;;;7.30;;
57249;SDS011;43102;52.014;-0.680;2023-05-07T00:33:00;10.40;;;7.30;;
57249;SDS011;43102;52.014;-0.680;2023-05-07T00:34:00;10.40;;;7.30;;
57249;SDS011;43102;52.014;-0.680;2023-05-07T00:35:00;10.40;;;7.30;;
57249;SDS011;43102;52.014;-0.680;2023-05-07T00:36:01;10.40;;;7.30;;
57249;SDS011;43102;52.014;-0.680;2023-05-07T00:37:01;10.40;;;7.30;;
57249;SDS011;43102;52.014;-0.680;2023-05-07T00:38:00;10.40;;;7.30;;
57249;SDS011;43102;52.014;-0.680;2023-05-07T00:39:02;10.40;;;7.30;;
57249;SDS011;43102;52.014;-0.680;2023-05-07T00:40:03;10.40;;;7.30;;
57249;SDS011;43102;52.014;-0.680;2023-05-07T00:41:02;10.40;;;7.30;;
57249;SDS011;43102;52.014;-0.680;2023-05-07T00:42:01;10.40;;;7.30;;
57249;SDS011;43102;52.014;-0.680;2023-05-07T00:43:00;10.40;;;7.30;;
57249;SDS011;43102;52.014;-0.680;2023-05-07T00:44:02;10.40;;;7.30;;
57249;SDS011;43102;52.014;-0.680;2023-05-07T00:45:00;10.40;;;7.30;;
57249;SDS011;43102;52.014;-0.680;2023-05-07T00:46:01;10.40;;;7.30;;
57249;SDS011;43102;52.014;-0.680;2023-05-07T00:47:02;10.40;;;7.30;;
57249;SDS011;43102;52.014;-0.680;2023-05-07T00:48:01;10.40;;;7.30;;
57249;SDS011;43102;52.014;-0.680;2023-05-07T00:49:00;10.40;;;7.30;;
57249;SDS011;43102;52.014;-0.680;2023-05-07T00:50:00;10.40;;;7.30;;
57249;SDS011;43102;52.014;-0.680;2023-05-07T00:51:00;10.40;;;7.30;;
57249;SDS011;43102;52.014;-0.680;2023-05-07T00:52:00;10.40;;;7.30;;
57249;SDS011;43102;52.014;-0.680;2023-05-07T00:53:00;10.40;;;7.30;;
57249;SDS011;43102;52.014;-0.680;2023-05-07T00:54:02;10.40;;;7.30;;
57249;SDS011;43102;52.014;-0.680;2023-05-07T00:55:04;10.40;;;7.30;;
57249;SDS011;43102;52.014;-0.680;2023-05-07T00:56:00;10.40;;;7.30;;
57249;SDS011;43102;52.014;-0.680;2023-05-07T00:57:02;10.40;;;7.30;;
57249;SDS011;43102;52.014;-0.680;2023-05-07T00:58:00;10.70;;;7.00;;
57249;SDS011;43102;52.014;-0.680;2023-05-07T00:59:01;10.70;;;7.00;;
57249;SDS011;43102;52.014;-0.680;2023-05-07T01:00:01;10.70;;;7.00;;
57249;SDS011;43102;52.014;-0.680;2023-05-07T01:01:01;10.70;;;7.00;;
57249;SDS011;43102;52.014;-0.680;2023-05-07T01:02:00;10.70;;;7.00;;
57249;SDS011;43102;52.014;-0.680;2023-05-07T01:03:01;10.70;;;7.00;;
57249;SDS011;43102;52.014;-0.680;2023-05-07T01:04:01;10.70;;;7.00;;
57249;SDS011;43102;52.014;-0.680;2023-05-07T01:05:01;10.70;;;7.00;;
57249;SDS011;43102;52.014;-0.680;2023-05-07T01:06:02;10.70;;;7.00;;
57249;SDS011;43102;52.014;-0.680;2023-05-07T01:07:02;10.70;;;7.00;;
57249;SDS011;43102;52.014;-0.680;2023-05-07T01:08:01;10.70;;;7.00;;
57249;SDS011;43102;52.014;-0.680;2023-05-07T01:09:00;10.70;;;7.00;;
57249;SDS011;43102;52.014;-0.680;2023-05-07T01:10:01;10.70;;;7.00;;
57249;SDS011;43102;52.014;-0.680;2023-05-07T01:11:01;10.70;;;7.00;;
57249;SDS011;43102;52.014;-0.680;2023-05-07T01:12:00;10.70;;;7.00;;
57249;SDS011;43102;52.014;-0.680;2023-05-07T01:13:01;10.70;;;7.00;;
57249;SDS011;43102;52.014;-0.680;2023-05-07T01:14:00;10.70;;;7.00;;
57249;SDS011;43102;52.014;-0.680;2023-05-07T01:15:01;10.70;;;7.00;;
57249;SDS011;43102;52.014;-0.680;2023-05-07T01:16:00;10.70;;;7.00;;
57249;SDS011;43102;52.014;-0.680;2023-05-07T01:17:00;10.70;;;7.00;;
57249;SDS011;43102;52.014;-0.680;2023-05-07T01:18:01;10.70;;;7.00;;
57249;SDS011;43102;52.014;-0.680;2023-05-07T01:19:01;10.70;;;7.00;;
57249;SDS011;43102;52.014;-0.680;2023-05-07T01:20:00;10.70;;;7.00;;
57249;SDS011;43102;52.014;-0.680;2023-05-07T01:21:01;10.70;;;7.00;;
57249;SDS011;43102;52.014;-0.680;2023-05-07T01:22:07;10.70;;;7.00;;
57249;SDS011;43102;52.014;-0.680;2023-05-07T01:23:01;10.70;;;7.00;;
57249;SDS011;43102;52.014;-0.680;2023-05-07T01:24:00;10.70;;;7.00;;
57249;SDS011;43102;52.014;-0.680;2023-05-07T01:25:01;10.70;;;7.00;;
57249;SDS011;43102;52.014;-0.680;2023-05-07T01:26:00;10.70;;;7.00;;
57249;SDS011;43102;52.014;-0.680;2023-05-07T01:27:01;10.70;;;7.00;;
57249;SDS011;43102;52.014;-0.680;2023-05-07T01:28:01;12.60;;;8.70;;
57249;SDS011;43102;52.014;-0.680;2023-05-07T01:29:00;12.60;;;8.70;;
57249;SDS011;43102;52.014;-0.680;2023-05-07T01:30:00;12.60;;;8.70;;
57249;SDS011;43102;52.014;-0.680;2023-05-07T01:31:02;12.60;;;8.70;;
57249;SDS011;43102;52.014;-0.680;2023-05-07T01:32:01;12.60;;;8.70;;
57249;SDS011;43102;52.014;-0.680;2023-05-07T01:33:06;12.60;;;8.70;;
57249;SDS011;43102;52.014;-0.680;2023-05-07T01:34:02;12.60;;;8.70;;
57249;SDS011;43102;52.014;-0.680;2023-05-07T01:35:01;12.60;;;8.70;;
57249;SDS011;43102;52.014;-0.680;2023-05-07T01:36:03;12.60;;;8.70;;
57249;SDS011;43102;52.014;-0.680;2023-05-07T01:37:00;12.60;;;8.70;;
57249;SDS011;43102;52.014;-0.680;2023-05-07T01:38:01;12.60;;;8.70;;
57249;SDS011;43102;52.014;-0.680;2023-05-07T01:39:02;12.60;;;8.70;;
57249;SDS011;43102;52.014;-0.680;2023-05-07T01:40:01;12.60;;;8.70;;
57249;SDS011;43102;52.014;-0.680;2023-05-07T01:41:01;12.60;;;8.70;;
57249;SDS011;43102;52.014;-0.680;2023-05-07T01:42:00;12.60;;;8.70;;
57249;SDS011;43102;52.014;-0.680;2023-05-07T01:43:02;12.60;;;8.70;;
57249;SDS011;43102;52.014;-0.680;2023-05-07T01:44:01;12.60;;;8.70;;
57249;SDS011;43102;52.014;-0.680;2023-05-07T01:45:00;12.60;;;8.70;;
57249;SDS011;43102;52.014;-0.680;2023-05-07T01:46:01;12.60;;;8.70;;
57249;SDS011;43102;52.014;-0.680;2023-05-07T01:47:01;12.60;;;8.70;;
57249;SDS011;43102;52.014;-0.680;2023-05-07T01:48:01;12.60;;;8.70;;
57249;SDS011;43102;52.014;-0.680;2023-05-07T01:49:00;12.60;;;8.70;;
57249;SDS011;43102;52.014;-0.680;2023-05-07T01:50:00;12.60;;;8.70;;
57249;SDS011;43102;52.014;-0.680;2023-05-07T01:51:01;12.60;;;8.70;;
57249;SDS011;43102;52.014;-0.680;2023-05-07T01:52:01;12.60;;;8.70;;
57249;SDS011;43102;52.014;-0.680;2023-05-07T01:53:01;12.60;;;8.70;;
57249;SDS011;43102;52.014;-0.680;2023-05-07T01:54:01;12.60;;;8.70;;
57249;SDS011;43102;52.014;-0.680;2023-05-07T01:55:00;12.60;;;8.70;;
57249;SDS011;43102;52.014;-0.680;2023-05-07T01:56:00;12.60;;;8.70;;
57249;SDS011;43102;52.014;-0.680;2023-05-07T01:57:00;12.60;;;8.70;;
57249;SDS011;43102;52.014;-0.680;2023-05-07T01:58:00;12.60;;;9.10;;
57249;SDS011;43102;52.014;-0.680;2023-05-07T01:59:02;12.60;;;9.10;;
57249;SDS011;43102;52.014;-0.680;2023-05-07T02:00:00;12.60;;;9.10;;
57249;SDS011;43102;52.014;-0.680;2023-05-07T02:01:00;12.60;;;9.10;;
57249;SDS011;43102;52.014;-0.680;2023-05-07T02:02:00;12.60;;;9.10;;
57249;SDS011;43102;52.014;-0.680;2023-05-07T02:03:00;12.60;;;9.10;;
57249;SDS011;43102;52.014;-0.680;2023-05-07T02:04:00;12.60;;;9.10;;
57249;SDS011;43102;52.014;-0.680;2023-05-07T02:05:01;12.60;;;9.10;;
57249;SDS011;43102;52.014;-0.680;2023-05-07T02:06:01;12.60;;;9.10;;
57249;SDS011;43102;52.014;-0.680;2023-05-07T02:07:00;12.60;;;9.10;;
57249;SDS011;43102;52.014;-0.680;2023-05-07T02:08:00;12.60;;;9.10;;
57249;SDS011;43102;52.014;-0.680;2023-05-07T02:09:00;12.60;;;9.10;;
57249;SDS011;43102;52.014;-0.680;2023-05-07T02:10:00;12.60;;;9.10;;
57249;SDS011;43102;52.014;-0.680;2023-05-07T02:11:01;12.60;;;9.10;;
57249;SDS011;43102;52.014;-0.680;2023-05-07T02:12:01;12.60;;;9.10;;
57249;SDS011;43102;52.014;-0.680;2023-05-07T02:13:01;12.60;;;9.10;;
57249;SDS011;43102;52.014;-0.680;2023-05-07T02:14:00;12.60;;;9.10;;
57249;SDS011;43102;52.014;-0.680;2023-05-07T02:15:00;12.60;;;9.10;;
57249;SDS011;43102;52.014;-0.680;2023-05-07T02:16:01;12.60;;;9.10;;
57249;SDS011;43102;52.014;-0.680;2023-05-07T02:17:00;12.60;;;9.10;;
57249;SDS011;43102;52.014;-0.680;2023-05-07T02:18:03;12.60;;;9.10;;
57249;SDS011;43102;52.014;-0.680;2023-05-07T02:19:00;12.60;;;9.10;;
57249;SDS011;43102;52.014;-0.680;2023-05-07T02:20:00;12.60;;;9.10;;
57249;SDS011;43102;52.014;-0.680;2023-05-07T02:21:00;12.60;;;9.10;;
57249;SDS011;43102;52.014;-0.680;2023-05-07T02:22:00;12.60;;;9.10;;
57249;SDS011;43102;52.014;-0.680;2023-05-07T02:23:00;12.60;;;9.10;;
57249;SDS011;43102;52.014;-0.680;2023-05-07T02:24:00;12.60;;;9.10;;
57249;SDS011;43102;52.014;-0.680;2023-05-07T02:25:00;12.60;;;9.10;;
57249;SDS011;43102;52.014;-0.680;2023-05-07T02:26:00;12.60;;;9.10;;
57249;SDS011;43102;52.014;-0.680;2023-05-07T02:27:01;12.60;;;9.10;;
57249;SDS011;43102;52.014;-0.680;2023-05-07T02:28:00;12.20;;;9.40;;
57249;SDS011;43102;52.014;-0.680;2023-05-07T02:29:00;12.20;;;9.40;;
57249;SDS011;43102;52.014;-0.680;2023-05-07T02:30:00;12.20;;;9.40;;
57249;SDS011;43102;52.014;-0.680;2023-05-07T02:31:03;12.20;;;9.40;;
57249;SDS011;43102;52.014;-0.680;2023-05-07T02:32:00;12.20;;;9.40;;
57249;SDS011;43102;52.014;-0.680;2023-05-07T02:33:00;12.20;;;9.40;;
57249;SDS011;43102;52.014;-0.680;2023-05-07T02:34:00;12.20;;;9.40;;
57249;SDS011;43102;52.014;-0.680;2023-05-07T02:35:00;12.20;;;9.40;;
57249;SDS011;43102;52.014;-0.680;2023-05-07T02:36:08;12.20;;;9.40;;
57249;SDS011;43102;52.014;-0.680;2023-05-07T02:37:00;12.20;;;9.40;;
57249;SDS011;43102;52.014;-0.680;2023-05-07T02:38:00;12.20;;;9.40;;
57249;SDS011;43102;52.014;-0.680;2023-05-07T02:39:00;12.20;;;9.40;;
57249;SDS011;43102;52.014;-0.680;2023-05-07T02:40:00;12.20;;;9.40;;
57249;SDS011;43102;52.014;-0.680;2023-05-07T02:41:00;12.20;;;9.40;;
57249;SDS011;43102;52.014;-0.680;2023-05-07T02:42:01;12.20;;;9.40;;
57249;SDS011;43102;52.014;-0.680;2023-05-07T02:43:00;12.20;;;9.40;;
57249;SDS011;43102;52.014;-0.680;2023-05-07T02:44:00;12.20;;;9.40;;
57249;SDS011;43102;52.014;-0.680;2023-05-07T02:45:00;12.20;;;9.40;;
57249;SDS011;43102;52.014;-0.680;2023-05-07T02:46:01;12.20;;;9.40;;
57249;SDS011;43102;52.014;-0.680;2023-05-07T02:47:00;12.20;;;9.40;;
57249;SDS011;43102;52.014;-0.680;2023-05-07T02:48:00;12.20;;;9.40;;
57249;SDS011;43102;52.014;-0.680;2023-05-07T02:49:00;12.20;;;9.40;;
57249;SDS011;43102;52.014;-0.680;2023-05-07T02:50:00;12.20;;;9.40;;
57249;SDS011;43102;52.014;-0.680;2023-05-07T02:51:01;12.20;;;9.40;;
57249;SDS011;43102;52.014;-0.680;2023-05-07T02:52:00;12.20;;;9.40;;
57249;SDS011;43102;52.014;-0.680;2023-05-07T02:53:00;12.20;;;9.40;;
57249;SDS011;43102;52.014;-0.680;2023-05-07T02:54:01;12.20;;;9.40;;
57249;SDS011;43102;52.014;-0.680;2023-05-07T02:55:00;12.20;;;9.40;;
57249;SDS011;43102;52.014;-0.680;2023-05-07T02:56:00;12.20;;;9.40;;
57249;SDS011;43102;52.014;-0.680;2023-05-07T02:57:01;12.20;;;9.40;;
57249;SDS011;43102;52.014;-0.680;2023-05-07T02:58:00;12.60;;;9.20;;
57249;SDS011;43102;52.014;-0.680;2023-05-07T02:59:00;12.60;;;9.20;;
57249;SDS011;43102;52.014;-0.680;2023-05-07T03:00:10;12.60;;;9.20;;
57249;SDS011;43102;52.014;-0.680;2023-05-07T03:01:01;12.60;;;9.20;;
57249;SDS011;43102;52.014;-0.680;2023-05-07T03:02:00;12.60;;;9.20;;
57249;SDS011;43102;52.014;-0.680;2023-05-07T03:03:00;12.60;;;9.20;;
57249;SDS011;43102;52.014;-0.680;2023-05-07T03:04:00;12.60;;;9.20;;
57249;SDS011;43102;52.014;-0.680;2023-05-07T03:05:01;12.60;;;9.20;;
57249;SDS011;43102;52.014;-0.680;2023-05-07T03:06:01;12.60;;;9.20;;
57249;SDS011;43102;52.014;-0.680;2023-05-07T03:07:00;12.60;;;9.20;;
57249;SDS011;43102;52.014;-0.680;2023-05-07T03:08:00;12.60;;;9.20;;
57249;SDS011;43102;52.014;-0.680;2023-05-07T03:09:00;12.60;;;9.20;;
57249;SDS011;43102;52.014;-0.680;2023-05-07T03:10:07;12.60;;;9.20;;
57249;SDS011;43102;52.014;-0.680;2023-05-07T03:11:00;12.60;;;9.20;;
57249;SDS011;43102;52.014;-0.680;2023-05-07T03:12:01;12.60;;;9.20;;
57249;SDS011;43102;52.014;-0.680;2023-05-07T03:13:01;12.60;;;9.20;;
57249;SDS011;43102;52.014;-0.680;2023-05-07T03:14:00;12.60;;;9.20;;
57249;SDS011;43102;52.014;-0.680;2023-05-07T03:15:00;12.60;;;9.20;;
57249;SDS011;43102;52.014;-0.680;2023-05-07T03:16:00;12.60;;;9.20;;
57249;SDS011;43102;52.014;-0.680;2023-05-07T03:17:00;12.60;;;9.20;;
57249;SDS011;43102;52.014;-0.680;2023-05-07T03:18:00;12.60;;;9.20;;
57249;SDS011;43102;52.014;-0.680;2023-05-07T03:19:00;12.60;;;9.20;;
57249;SDS011;43102;52.014;-0.680;2023-05-07T03:20:00;12.60;;;9.20;;
57249;SDS011;43102;52.014;-0.680;2023-05-07T03:21:00;12.60;;;9.20;;
57249;SDS011;43102;52.014;-0.680;2023-05-07T03:22:00;12.60;;;9.20;;
57249;SDS011;43102;52.014;-0.680;2023-05-07T03:23:00;12.60;;;9.20;;
57249;SDS011;43102;52.014;-0.680;2023-05-07T03:24:00;12.60;;;9.20;;
57249;SDS011;43102;52.014;-0.680;2023-05-07T03:25:00;12.60;;;9.20;;
57249;SDS011;43102;52.014;-0.680;2023-05-07T03:26:00;12.60;;;9.20;;
57249;SDS011;43102;52.014;-0.680;2023-05-07T03:27:01;12.60;;;9.20;;
57249;SDS011;43102;52.014;-0.680;2023-05-07T03:28:00;13.90;;;9.90;;
57249;SDS011;43102;52.014;-0.680;2023-05-07T03:29:00;13.90;;;9.90;;
57249;SDS011;43102;52.014;-0.680;2023-05-07T03:30:00;13.90;;;9.90;;
57249;SDS011;43102;52.014;-0.680;2023-05-07T03:31:00;13.90;;;9.90;;
57249;SDS011;43102;52.014;-0.680;2023-05-07T03:32:00;13.90;;;9.90;;
57249;SDS011;43102;52.014;-0.680;2023-05-07T03:33:00;13.90;;;9.90;;
57249;SDS011;43102;52.014;-0.680;2023-05-07T03:34:00;13.90;;;9.90;;
57249;SDS011;43102;52.014;-0.680;2023-05-07T03:35:00;13.90;;;9.90;;
57249;SDS011;43102;52.014;-0.680;2023-05-07T03:36:01;13.90;;;9.90;;
57249;SDS011;43102;52.014;-0.680;2023-05-07T03:37:00;13.90;;;9.90;;
57249;SDS011;43102;52.014;-0.680;2023-05-07T03:38:01;13.90;;;9.90;;
57249;SDS011;43102;52.014;-0.680;2023-05-07T03:39:00;13.90;;;9.90;;
57249;SDS011;43102;52.014;-0.680;2023-05-07T03:40:00;13.90;;;9.90;;
57249;SDS011;43102;52.014;-0.680;2023-05-07T03:41:00;13.90;;;9.90;;
57249;SDS011;43102;52.014;-0.680;2023-05-07T03:42:01;13.90;;;9.90;;
57249;SDS011;43102;52.014;-0.680;2023-05-07T03:43:00;13.90;;;9.90;;
57249;SDS011;43102;52.014;-0.680;2023-05-07T03:44:00;13.90;;;9.90;;
57249;SDS011;43102;52.014;-0.680;2023-05-07T03:45:00;13.90;;;9.90;;
57249;SDS011;43102;52.014;-0.680;2023-05-07T03:46:00;13.90;;;9.90;;
57249;SDS011;43102;52.014;-0.680;2023-05-07T03:47:00;13.90;;;9.90;;
57249;SDS011;43102;52.014;-0.680;2023-05-07T03:48:00;13.90;;;9.90;;
57249;SDS011;43102;52.014;-0.680;2023-05-07T03:49:00;13.90;;;9.90;;
57249;SDS011;43102;52.014;-0.680;2023-05-07T03:50:00;13.90;;;9.90;;
57249;SDS011;43102;52.014;-0.680;2023-05-07T03:51:00;13.90;;;9.90;;
57249;SDS011;43102;52.014;-0.680;2023-05-07T03:52:00;13.90;;;9.90;;
57249;SDS011;43102;52.014;-0.680;2023-05-07T03:53:00;13.90;;;9.90;;
57249;SDS011;43102;52.014;-0.680;2023-05-07T03:54:00;13.90;;;9.90;;
57249;SDS011;43102;52.014;-0.680;2023-05-07T03:55:00;13.90;;;9.90;;
57249;SDS011;43102;52.014;-0.680;2023-05-07T03:56:00;13.90;;;9.90;;
57249;SDS011;43102;52.014;-0.680;2023-05-07T03:57:00;13.90;;;9.90;;
57249;SDS011;43102;52.014;-0.680;2023-05-07T03:58:00;13.70;;;9.50;;
57249;SDS011;43102;52.014;-0.680;2023-05-07T03:59:01;13.70;;;9.50;;
57249;SDS011;43102;52.014;-0.680;2023-05-07T04:00:00;13.70;;;9.50;;
57249;SDS011;43102;52.014;-0.680;2023-05-07T04:01:00;13.70;;;9.50;;
57249;SDS011;43102;52.014;-0.680;2023-05-07T04:02:03;13.70;;;9.50;;
57249;SDS011;43102;52.014;-0.680;2023-05-07T04:03:00;13.70;;;9.50;;
57249;SDS011;43102;52.014;-0.680;2023-05-07T04:04:00;13.70;;;9.50;;
57249;SDS011;43102;52.014;-0.680;2023-05-07T04:05:01;13.70;;;9.50;;
57249;SDS011;43102;52.014;-0.680;2023-05-07T04:06:00;13.70;;;9.50;;
57249;SDS011;43102;52.014;-0.680;2023-05-07T04:07:00;13.70;;;9.50;;
57249;SDS011;43102;52.014;-0.680;2023-05-07T04:08:01;13.70;;;9.50;;
57249;SDS011;43102;52.014;-0.680;2023-05-07T04:09:00;13.70;;;9.50;;
57249;SDS011;43102;52.014;-0.680;2023-05-07T04:10:00;13.70;;;9.50;;
57249;SDS011;43102;52.014;-0.680;2023-05-07T04:11:02;13.70;;;9.50;;
57249;SDS011;43102;52.014;-0.680;2023-05-07T04:12:01;13.70;;;9.50;;
57249;SDS011;43102;52.014;-0.680;2023-05-07T04:13:00;13.70;;;9.50;;
57249;SDS011;43102;52.014;-0.680;2023-05-07T04:14:00;13.70;;;9.50;;
57249;SDS011;43102;52.014;-0.680;2023-05-07T04:15:00;13.70;;;9.50;;
57249;SDS011;43102;52.014;-0.680;2023-05-07T04:16:02;13.70;;;9.50;;
57249;SDS011;43102;52.014;-0.680;2023-05-07T04:17:00;13.70;;;9.50;;
57249;SDS011;43102;52.014;-0.680;2023-05-07T04:18:00;13.70;;;9.50;;
57249;SDS011;43102;52.014;-0.680;2023-05-07T04:19:00;13.70;;;9.50;;
57249;SDS011;43102;52.014;-0.680;2023-05-07T04:20:00;13.70;;;9.50;;
57249;SDS011;43102;52.014;-0.680;2023-05-07T04:21:00;13.70;;;9.50;;
57249;SDS011;43102;52.014;-0.680;2023-05-07T04:22:00;13.70;;;9.50;;
57249;SDS011;43102;52.014;-0.680;2023-05-07T04:23:00;13.70;;;9.50;;
57249;SDS011;43102;52.014;-0.680;2023-05-07T04:24:02;13.70;;;9.50;;
57249;SDS011;43102;52.014;-0.680;2023-05-07T04:25:01;13.70;;;9.50;;
57249;SDS011;43102;52.014;-0.680;2023-05-07T04:26:00;13.70;;;9.50;;
57249;SDS011;43102;52.014;-0.680;2023-05-07T04:27:01;13.70;;;9.50;;
57249;SDS011;43102;52.014;-0.680;2023-05-07T04:28:00;14.30;;;10.00;;
57249;SDS011;43102;52.014;-0.680;2023-05-07T04:29:00;14.30;;;10.00;;
57249;SDS011;43102;52.014;-0.680;2023-05-07T04:30:00;14.30;;;10.00;;
57249;SDS011;43102;52.014;-0.680;2023-05-07T04:31:00;14.30;;;10.00;;
57249;SDS011;43102;52.014;-0.680;2023-05-07T04:32:01;14.30;;;10.00;;
57249;SDS011;43102;52.014;-0.680;2023-05-07T04:33:00;14.30;;;10.00;;
57249;SDS011;43102;52.014;-0.680;2023-05-07T04:34:01;14.30;;;10.00;;
57249;SDS011;43102;52.014;-0.680;2023-05-07T04:35:00;14.30;;;10.00;;
57249;SDS011;43102;52.014;-0.680;2023-05-07T04:36:03;14.30;;;10.00;;
57249;SDS011;43102;52.014;-0.680;2023-05-07T04:37:00;14.30;;;10.00;;
57249;SDS011;43102;52.014;-0.680;2023-05-07T04:38:01;14.30;;;10.00;;
57249;SDS011;43102;52.014;-0.680;2023-05-07T04:39:00;14.30;;;10.00;;
57249;SDS011;43102;52.014;-0.680;2023-05-07T04:40:00;14.30;;;10.00;;
57249;SDS011;43102;52.014;-0.680;2023-05-07T04:41:05;14.30;;;10.00;;
57249;SDS011;43102;52.014;-0.680;2023-05-07T04:42:00;14.30;;;10.00;;
57249;SDS011;43102;52.014;-0.680;2023-05-07T04:43:01;14.30;;;10.00;;
57249;SDS011;43102;52.014;-0.680;2023-05-07T04:44:00;14.30;;;10.00;;
57249;SDS011;43102;52.014;-0.680;2023-05-07T04:45:01;14.30;;;10.00;;
57249;SDS011;43102;52.014;-0.680;2023-05-07T04:46:00;14.30;;;10.00;;
57249;SDS011;43102;52.014;-0.680;2023-05-07T04:47:00;14.30;;;10.00;;
57249;SDS011;43102;52.014;-0.680;2023-05-07T04:48:00;14.30;;;10.00;;
57249;SDS011;43102;52.014;-0.680;2023-05-07T04:49:00;14.30;;;10.00;;
57249;SDS011;43102;52.014;-0.680;2023-05-07T04:50:00;14.30;;;10.00;;
57249;SDS011;43102;52.014;-0.680;2023-05-07T04:51:00;14.30;;;10.00;;
57249;SDS011;43102;52.014;-0.680;2023-05-07T04:52:00;14.30;;;10.00;;
57249;SDS011;43102;52.014;-0.680;2023-05-07T04:53:01;14.30;;;10.00;;
57249;SDS011;43102;52.014;-0.680;2023-05-07T04:54:00;14.30;;;10.00;;
57249;SDS011;43102;52.014;-0.680;2023-05-07T04:55:00;14.30;;;10.00;;
57249;SDS011;43102;52.014;-0.680;2023-05-07T04:56:00;14.30;;;10.00;;
57249;SDS011;43102;52.014;-0.680;2023-05-07T04:57:00;14.30;;;10.00;;
57249;SDS011;43102;52.014;-0.680;2023-05-07T04:58:01;12.30;;;8.40;;
57249;SDS011;43102;52.014;-0.680;2023-05-07T04:59:00;12.30;;;8.40;;
57249;SDS011;43102;52.014;-0.680;2023-05-07T05:00:00;12.30;;;8.40;;
57249;SDS011;43102;52.014;-0.680;2023-05-07T05:01:01;12.30;;;8.40;;
57249;SDS011;43102;52.014;-0.680;2023-05-07T05:02:01;12.30;;;8.40;;
57249;SDS011;43102;52.014;-0.680;2023-05-07T05:03:00;12.30;;;8.40;;
57249;SDS011;43102;52.014;-0.680;2023-05-07T05:04:00;12.30;;;8.40;;
57249;SDS011;43102;52.014;-0.680;2023-05-07T05:05:02;12.30;;;8.40;;
57249;SDS011;43102;52.014;-0.680;2023-05-07T05:06:00;12.30;;;8.40;;
57249;SDS011;43102;52.014;-0.680;2023-05-07T05:07:00;12.30;;;8.40;;
57249;SDS011;43102;52.014;-0.680;2023-05-07T05:08:00;12.30;;;8.40;;
57249;SDS011;43102;52.014;-0.680;2023-05-07T05:09:00;12.30;;;8.40;;
57249;SDS011;43102;52.014;-0.680;2023-05-07T05:10:01;12.30;;;8.40;;
57249;SDS011;43102;52.014;-0.680;2023-05-07T05:11:02;12.30;;;8.40;;
57249;SDS011;43102;52.014;-0.680;2023-05-07T05:12:00;12.30;;;8.40;;
57249;SDS011;43102;52.014;-0.680;2023-05-07T05:13:00;12.30;;;8.40;;
57249;SDS011;43102;52.014;-0.680;2023-05-07T05:14:01;12.30;;;8.40;;
57249;SDS011;43102;52.014;-0.680;2023-05-07T05:15:00;12.30;;;8.40;;
57249;SDS011;43102;52.014;-0.680;2023-05-07T05:16:00;12.30;;;8.40;;
57249;SDS011;43102;52.014;-0.680;2023-05-07T05:17:00;12.30;;;8.40;;
57249;SDS011;43102;52.014;-0.680;2023-05-07T05:18:00;12.30;;;8.40;;
57249;SDS011;43102;52.014;-0.680;2023-05-07T05:19:02;12.30;;;8.40;;
57249;SDS011;43102;52.014;-0.680;2023-05-07T05:20:00;12.30;;;8.40;;
57249;SDS011;43102;52.014;-0.680;2023-05-07T05:21:00;12.30;;;8.40;;
57249;SDS011;43102;52.014;-0.680;2023-05-07T05:22:01;12.30;;;8.40;;
57249;SDS011;43102;52.014;-0.680;2023-05-07T05:23:00;12.30;;;8.40;;
57249;SDS011;43102;52.014;-0.680;2023-05-07T05:24:00;12.30;;;8.40;;
57249;SDS011;43102;52.014;-0.680;2023-05-07T05:25:01;12.30;;;8.40;;
57249;SDS011;43102;52.014;-0.680;2023-05-07T05:26:00;12.30;;;8.40;;
57249;SDS011;43102;52.014;-0.680;2023-05-07T05:27:01;12.30;;;8.40;;
57249;SDS011;43102;52.014;-0.680;2023-05-07T05:28:01;13.40;;;9.60;;
57249;SDS011;43102;52.014;-0.680;2023-05-07T05:29:00;13.40;;;9.60;;
57249;SDS011;43102;52.014;-0.680;2023-05-07T05:30:00;13.40;;;9.60;;
57249;SDS011;43102;52.014;-0.680;2023-05-07T05:31:00;13.40;;;9.60;;
57249;SDS011;43102;52.014;-0.680;2023-05-07T05:32:00;13.40;;;9.60;;
57249;SDS011;43102;52.014;-0.680;2023-05-07T05:33:00;13.40;;;9.60;;
57249;SDS011;43102;52.014;-0.680;2023-05-07T05:34:00;13.40;;;9.60;;
57249;SDS011;43102;52.014;-0.680;2023-05-07T05:35:00;13.40;;;9.60;;
57249;SDS011;43102;52.014;-0.680;2023-05-07T05:36:00;13.40;;;9.60;;
57249;SDS011;43102;52.014;-0.680;2023-05-07T05:37:00;13.40;;;9.60;;
57249;SDS011;43102;52.014;-0.680;2023-05-07T05:38:00;13.40;;;9.60;;
57249;SDS011;43102;52.014;-0.680;2023-05-07T05:39:00;13.40;;;9.60;;
57249;SDS011;43102;52.014;-0.680;2023-05-07T05:40:01;13.40;;;9.60;;
57249;SDS011;43102;52.014;-0.680;2023-05-07T05:41:00;13.40;;;9.60;;
57249;SDS011;43102;52.014;-0.680;2023-05-07T05:42:00;13.40;;;9.60;;
57249;SDS011;43102;52.014;-0.680;2023-05-07T05:43:00;13.40;;;9.60;;
57249;SDS011;43102;52.014;-0.680;2023-05-07T05:44:00;13.40;;;9.60;;
57249;SDS011;43102;52.014;-0.680;2023-05-07T05:45:00;13.40;;;9.60;;
57249;SDS011;43102;52.014;-0.680;2023-05-07T05:46:00;13.40;;;9.60;;
57249;SDS011;43102;52.014;-0.680;2023-05-07T05:47:00;13.40;;;9.60;;
57249;SDS011;43102;52.014;-0.680;2023-05-07T05:48:00;13.40;;;9.60;;
57249;SDS011;43102;52.014;-0.680;2023-05-07T05:49:00;13.40;;;9.60;;
57249;SDS011;43102;52.014;-0.680;2023-05-07T05:50:00;13.40;;;9.60;;